Time;durP1;ratioP1;P1;durP2;ratioP2;P2;SDS_P1;SDS_P2;PMS_P1;PMS_P2;Temp;Humidity;BMP_temperature;BMP_pressure;BME280_temperature;BME280_humidity;BME280_pressure;Samples;Min_cycle;Max_cycle;Signal;HPM_P1;HPM_P2
2021/01/31 00:02:19;;;;;;;260.00;140.18;;;9.00;99.90;;;;;;5091968;28;20028;-77
2021/01/31 00:04:49;;;;;;;236.57;126.05;;;8.90;99.90;;;;;;5092071;28;20521;-76
2021/01/31 00:07:16;;;;;;;221.73;118.15;;;9.00;99.90;;;;;;5092076;28;20085;-77
2021/01/31 00:09:43;;;;;;;210.00;113.47;;;8.90;99.90;;;;;;5091895;28;20024;-76
2021/01/31 00:12:10;;;;;;;193.60;107.00;;;8.90;99.90;;;;;;5091887;28;20053;-76
2021/01/31 00:14:36;;;;;;;211.10;106.50;;;8.80;99.90;;;;;;5090547;28;20048;-76
2021/01/31 00:17:03;;;;;;;187.57;100.40;;;8.80;99.90;;;;;;5092003;28;20025;-76
2021/01/31 00:19:29;;;;;;;162.38;85.97;;;8.70;99.90;;;;;;5091898;28;20028;-77
2021/01/31 00:22:01;;;;;;;165.73;90.45;;;8.70;99.90;;;;;;5091739;28;20039;-76
2021/01/31 00:24:27;;;;;;;146.70;81.25;;;8.60;99.90;;;;;;5091784;28;20488;-76
2021/01/31 00:26:53;;;;;;;142.68;78.10;;;8.50;99.90;;;;;;5091811;28;20028;-76
2021/01/31 00:29:19;;;;;;;135.48;75.93;;;8.50;99.90;;;;;;5091705;28;20389;-77
2021/01/31 00:31:47;;;;;;;117.72;63.78;;;8.50;99.90;;;;;;5090633;28;20486;-76
2021/01/31 00:34:17;;;;;;;137.52;69.93;;;8.50;99.90;;;;;;5091672;28;20069;-76
2021/01/31 00:36:44;;;;;;;168.32;85.07;;;8.40;99.90;;;;;;5091758;28;20471;-76
2021/01/31 00:39:11;;;;;;;235.55;112.45;;;8.40;99.90;;;;;;5091663;28;20028;-76
2021/01/31 00:41:37;;;;;;;344.65;126.30;;;8.40;99.90;;;;;;5092502;28;20396;-77
2021/01/31 00:44:07;;;;;;;298.67;136.10;;;8.40;99.90;;;;;;5095546;28;20509;-77
2021/01/31 00:46:39;;;;;;;312.52;143.90;;;8.40;99.90;;;;;;5095800;28;20028;-77
2021/01/31 00:49:06;;;;;;;387.88;184.15;;;8.40;99.90;;;;;;5095498;28;20062;-77
2021/01/31 00:51:32;;;;;;;382.80;185.90;;;8.40;99.90;;;;;;5095656;28;20048;-76
2021/01/31 00:53:58;;;;;;;355.60;163.77;;;8.40;99.90;;;;;;5094144;28;20051;-76
2021/01/31 00:56:24;;;;;;;306.27;144.50;;;8.50;99.90;;;;;;5095459;28;20047;-76
2021/01/31 00:58:50;;;;;;;360.42;178.02;;;8.50;99.90;;;;;;5095368;28;20109;-76
2021/01/31 01:01:17;;;;;;;347.77;167.63;;;8.50;99.90;;;;;;5095253;28;20042;-77
2021/01/31 01:03:44;;;;;;;327.48;159.52;;;8.50;99.90;;;;;;5093884;28;20031;-76
2021/01/31 01:06:10;;;;;;;303.42;147.55;;;8.50;99.90;;;;;;5095208;28;20024;-77
2021/01/31 01:08:36;;;;;;;241.98;118.60;;;8.50;99.90;;;;;;5094925;28;20028;-77
2021/01/31 01:11:03;;;;;;;244.35;118.57;;;8.50;99.90;;;;;;5094845;28;20020;-77
2021/01/31 01:13:29;;;;;;;224.68;115.25;;;8.60;99.90;;;;;;5093702;28;20170;-77
2021/01/31 01:15:55;;;;;;;225.73;115.57;;;8.60;99.90;;;;;;5093967;28;20115;-77
2021/01/31 01:18:21;;;;;;;206.32;106.55;;;8.60;99.90;;;;;;5095049;28;20454;-77
2021/01/31 01:20:47;;;;;;;236.35;107.72;;;8.60;99.90;;;;;;5095044;28;20039;-76
2021/01/31 01:23:14;;;;;;;200.82;105.88;;;8.60;99.90;;;;;;5094980;28;20477;-77
2021/01/31 01:25:39;;;;;;;192.60;99.30;;;8.60;99.90;;;;;;5094881;28;20028;-77
2021/01/31 01:28:05;;;;;;;208.23;110.00;;;8.60;99.90;;;;;;5094716;28;20039;-77
2021/01/31 01:30:32;;;;;;;217.40;109.70;;;8.60;99.90;;;;;;5094808;28;20068;-76
2021/01/31 01:32:59;;;;;;;226.80;118.80;;;8.60;99.90;;;;;;5094802;28;20089;-77
2021/01/31 01:35:26;;;;;;;216.73;111.50;;;8.60;99.90;;;;;;5094692;28;20016;-77
2021/01/31 01:37:52;;;;;;;224.85;117.93;;;8.60;99.90;;;;;;5093468;28;20020;-77
2021/01/31 01:40:34;;;;;;;211.15;112.53;;;8.60;99.90;;;;;;5094776;28;20542;-77
2021/01/31 01:43:01;;;;;;;209.50;107.55;;;8.50;99.90;;;;;;5093399;28;20530;-77
2021/01/31 01:45:28;;;;;;;207.05;109.47;;;8.50;99.90;;;;;;5094490;28;20050;-76
2021/01/31 01:47:59;;;;;;;206.20;109.68;;;8.60;99.90;;;;;;5094356;28;20386;-77
2021/01/31 01:50:36;;;;;;;190.05;103.53;;;8.60;99.90;;;;;;5094317;28;20044;-77
2021/01/31 01:53:02;;;;;;;183.10;98.03;;;8.60;99.90;;;;;;5094155;28;20035;-77
2021/01/31 01:55:32;;;;;;;187.13;96.10;;;8.60;99.90;;;;;;5094201;28;20024;-77
2021/01/31 01:58:07;;;;;;;197.20;102.13;;;8.60;99.90;;;;;;5094149;28;20146;-77
2021/01/31 02:00:33;;;;;;;194.25;96.68;;;8.50;99.90;;;;;;5094347;28;20105;-77
2021/01/31 02:03:06;;;;;;;187.00;94.47;;;8.50;99.90;;;;;;5094351;28;20023;-77
2021/01/31 02:05:32;;;;;;;191.40;94.53;;;8.40;99.90;;;;;;5094102;28;20024;-76
2021/01/31 02:07:59;;;;;;;183.20;92.90;;;8.40;99.90;;;;;;5093929;28;20528;-76
2021/01/31 02:10:26;;;;;;;185.75;93.18;;;8.30;99.90;;;;;;5093996;28;20028;-77
2021/01/31 02:12:57;;;;;;;181.00;93.47;;;8.20;99.90;;;;;;5094154;28;20028;-77
2021/01/31 02:15:23;;;;;;;192.20;98.40;;;8.20;99.90;;;;;;5092545;28;20048;-77
2021/01/31 02:18:04;;;;;;;259.75;121.10;;;8.10;99.90;;;;;;5094036;28;20032;-77
2021/01/31 02:21:04;;;;;;;249.27;118.28;;;8.10;99.90;;;;;;5092771;28;20020;-77
2021/01/31 02:24:02;;;;;;;270.20;135.63;;;8.10;99.90;;;;;;5093767;28;20138;-77
2021/01/31 02:26:33;;;;;;;192.70;101.82;;;8.10;99.90;;;;;;5093770;28;20028;-77
2021/01/31 02:29:08;;;;;;;178.30;94.32;;;8.10;99.90;;;;;;5093657;28;20063;-77
2021/01/31 02:32:11;;;;;;;136.48;71.40;;;8.10;99.90;;;;;;5093718;28;20463;-77
2021/01/31 02:34:47;;;;;;;133.07;70.20;;;8.10;99.90;;;;;;5093697;28;20380;-77
2021/01/31 02:37:38;;;;;;;129.82;67.75;;;8.10;99.90;;;;;;5094183;28;20020;-77
2021/01/31 02:40:15;;;;;;;109.57;55.80;;;8.10;99.90;;;;;;5092277;28;20387;-77
2021/01/31 02:43:04;;;;;;;94.35;50.63;;;8.10;99.90;;;;;;5091979;28;20024;-77
2021/01/31 02:45:45;;;;;;;76.22;42.00;;;8.20;99.90;;;;;;5092786;28;20563;-76
2021/01/31 02:48:13;;;;;;;;;;;8.20;99.90;;;;;;5093689;28;20036;-76
2021/01/31 02:50:50;;;;;;;72.88;40.42;;;8.30;99.90;;;;;;5093154;28;19904;-76
2021/01/31 02:53:24;;;;;;;124.93;63.75;;;8.20;99.90;;;;;;5093006;28;20100;-76
2021/01/31 02:56:15;;;;;;;184.40;97.72;;;8.10;99.90;;;;;;5093400;28;20069;-77
2021/01/31 02:58:55;;;;;;;195.90;103.60;;;8.10;99.90;;;;;;5091735;28;20445;-77
2021/01/31 03:01:25;;;;;;;;;;;8.10;99.90;;;;;;5093512;28;20020;-77
2021/01/31 03:04:24;;;;;;;157.35;84.55;;;8.10;99.90;;;;;;5091195;28;19903;-76
2021/01/31 03:07:15;;;;;;;145.40;77.82;;;8.00;99.90;;;;;;5092965;28;20478;-77
2021/01/31 03:09:58;;;;;;;138.40;70.78;;;8.00;99.90;;;;;;5091533;28;20077;-77
2021/01/31 03:12:40;;;;;;;133.57;66.25;;;8.00;99.90;;;;;;5091605;28;20016;-77
2021/01/31 03:15:17;;;;;;;142.07;68.28;;;8.10;99.90;;;;;;5091690;28;20051;-77
2021/01/31 03:17:53;;;;;;;115.82;61.40;;;8.10;99.90;;;;;;5091561;28;20020;-77
2021/01/31 03:20:28;;;;;;;87.95;48.53;;;8.10;99.90;;;;;;5091714;28;20484;-78
2021/01/31 03:23:08;;;;;;;117.05;56.28;;;8.20;99.90;;;;;;5091601;28;20021;-77
2021/01/31 03:26:12;;;;;;;123.32;59.15;;;8.10;99.90;;;;;;5092708;28;20022;-77
2021/01/31 03:28:38;;;;;;;110.22;57.42;;;8.10;99.90;;;;;;5051305;28;20138;-76
2021/01/31 03:31:08;;;;;;;122.15;62.10;;;8.10;99.90;;;;;;5091191;28;20115;-76
2021/01/31 03:33:43;;;;;;;119.88;64.18;;;8.00;99.90;;;;;;5092613;28;20454;-77
2021/01/31 03:36:09;;;;;;;115.05;62.45;;;8.00;99.90;;;;;;5092467;28;20020;-77
2021/01/31 03:38:44;;;;;;;97.95;50.60;;;8.00;99.90;;;;;;5092271;28;20076;-77
2021/01/31 03:41:13;;;;;;;72.90;39.70;;;8.10;99.90;;;;;;5092264;28;20055;-77
2021/01/31 03:43:39;;;;;;;75.53;40.78;;;8.10;99.90;;;;;;5092375;28;20479;-77
2021/01/31 03:46:29;;;;;;;94.00;45.38;;;8.10;99.90;;;;;;5092264;28;20155;-77
2021/01/31 03:49:00;;;;;;;68.22;34.30;;;8.20;99.90;;;;;;5092251;28;20024;-77
2021/01/31 03:51:27;;;;;;;66.45;36.22;;;8.20;99.90;;;;;;5090995;28;20028;-77
2021/01/31 03:53:54;;;;;;;57.10;34.15;;;8.20;99.90;;;;;;5092250;28;20020;-77
2021/01/31 03:56:30;;;;;;;53.88;30.98;;;8.20;99.90;;;;;;5092270;28;20099;-78
2021/01/31 03:58:58;;;;;;;58.10;32.25;;;8.20;99.90;;;;;;5092071;28;20043;-78
2021/01/31 04:01:26;;;;;;;63.17;35.53;;;8.20;99.90;;;;;;5092199;28;20386;-77
2021/01/31 04:04:07;;;;;;;56.35;29.60;;;8.30;99.90;;;;;;5092045;28;20379;-77
2021/01/31 04:06:35;;;;;;;;;;;8.30;99.90;;;;;;5092685;28;20051;-77
2021/01/31 04:09:02;;;;;;;52.58;27.33;;;8.30;99.90;;;;;;5091935;28;19908;-77
2021/01/31 04:11:42;;;;;;;45.38;26.83;;;8.30;99.90;;;;;;5092048;28;20024;-77
2021/01/31 04:14:36;;;;;;;74.15;36.35;;;8.20;99.90;;;;;;5091983;28;20093;-77
2021/01/31 04:17:03;;;;;;;76.65;39.35;;;8.20;99.90;;;;;;5087549;28;20039;-77
2021/01/31 04:19:28;;;;;;;81.18;43.05;;;8.20;99.90;;;;;;5096302;28;20096;-77
2021/01/31 04:21:54;;;;;;;71.15;39.42;;;8.10;99.90;;;;;;5096118;28;20478;-77
2021/01/31 04:24:20;;;;;;;62.88;36.78;;;8.10;99.90;;;;;;5095988;28;20028;-77
2021/01/31 04:26:46;;;;;;;35.28;20.45;;;8.10;99.90;;;;;;5095923;28;20153;-77
2021/01/31 04:29:11;;;;;;;38.97;20.48;;;8.20;99.90;;;;;;5095852;28;20028;-77
2021/01/31 04:31:37;;;;;;;61.30;31.27;;;8.20;99.90;;;;;;5094623;28;20020;-77
2021/01/31 04:34:03;;;;;;;89.93;46.15;;;8.30;99.90;;;;;;5095827;28;20419;-77
2021/01/31 04:36:29;;;;;;;112.60;42.80;;;8.20;99.90;;;;;;5096032;28;20091;-77
2021/01/31 04:38:55;;;;;;;71.10;37.78;;;8.20;99.90;;;;;;5095870;28;20493;-77
2021/01/31 04:41:23;;;;;;;72.95;40.83;;;8.20;99.90;;;;;;5095664;28;20149;-77
2021/01/31 04:43:50;;;;;;;67.10;35.90;;;8.20;99.90;;;;;;5095727;28;20405;-77
2021/01/31 04:46:20;;;;;;;61.33;35.17;;;8.20;99.90;;;;;;5095661;28;20031;-78
2021/01/31 04:49:12;;;;;;;71.90;36.97;;;8.20;99.90;;;;;;5095395;28;20028;-78
2021/01/31 04:52:16;;;;;;;63.38;36.15;;;8.10;99.90;;;;;;5094385;28;20032;-78
2021/01/31 04:55:15;;;;;;;86.95;49.50;;;8.20;99.90;;;;;;5050388;28;20457;-78
2021/01/31 04:57:49;;;;;;;84.10;48.28;;;8.20;99.90;;;;;;5095776;28;20497;-78
2021/01/31 05:00:22;;;;;;;74.22;41.58;;;8.10;99.90;;;;;;5094305;28;20538;-78
2021/01/31 05:02:56;;;;;;;74.70;40.33;;;8.10;99.90;;;;;;5095721;28;20478;-79
2021/01/31 05:05:51;;;;;;;79.25;43.03;;;8.10;99.90;;;;;;5095848;28;20016;-79
2021/01/31 05:08:20;;;;;;;86.00;43.97;;;8.10;99.90;;;;;;5058779;28;20039;-79
2021/01/31 05:10:49;;;;;;;69.25;38.80;;;8.10;99.90;;;;;;5095613;28;20028;-78
2021/01/31 05:13:38;;;;;;;61.58;37.22;;;8.10;99.90;;;;;;5095741;28;20057;-78
2021/01/31 05:16:11;;;;;;;73.03;37.30;;;8.10;99.90;;;;;;5054176;28;20408;-78
2021/01/31 05:18:45;;;;;;;61.17;36.15;;;8.10;99.90;;;;;;5055316;28;20469;-78
2021/01/31 05:21:13;;;;;;;60.53;35.58;;;8.10;99.90;;;;;;5054755;28;20121;-78
2021/01/31 05:23:43;;;;;;;65.05;38.05;;;8.10;99.90;;;;;;5053640;28;20025;-79
2021/01/31 05:26:11;;;;;;;75.37;42.03;;;8.10;99.90;;;;;;5055054;28;20408;-79
2021/01/31 05:28:43;;;;;;;76.57;45.60;;;8.10;99.90;;;;;;5055169;28;20028;-79
2021/01/31 05:31:13;;;;;;;78.85;45.70;;;8.10;99.90;;;;;;5055420;28;20023;-79
2021/01/31 05:33:52;;;;;;;76.70;46.42;;;8.10;99.90;;;;;;5053980;28;20025;-79
2021/01/31 05:36:19;;;;;;;90.38;54.67;;;8.00;99.90;;;;;;5054103;28;20503;-79
2021/01/31 05:38:47;;;;;;;126.70;68.68;;;7.90;99.90;;;;;;5054198;28;20029;-78
2021/01/31 05:41:37;;;;;;;122.82;68.45;;;7.90;99.90;;;;;;5053472;28;20029;-78
2021/01/31 05:44:09;;;;;;;;;;;7.90;99.90;;;;;;5055297;28;20032;-78
2021/01/31 05:46:48;;;;;;;106.28;61.50;;;7.80;99.90;;;;;;5054734;28;19940;-79
2021/01/31 05:49:34;;;;;;;108.95;62.00;;;7.80;99.90;;;;;;5054719;28;20052;-78
2021/01/31 05:52:01;;;;;;;120.82;73.97;;;7.80;99.90;;;;;;5054791;28;20063;-78
2021/01/31 05:54:34;;;;;;;128.45;70.90;;;7.80;99.90;;;;;;5054728;28;20100;-78
2021/01/31 05:57:00;;;;;;;123.40;66.65;;;7.70;99.90;;;;;;5054299;28;20074;-77
2021/01/31 05:59:39;;;;;;;123.63;68.25;;;7.80;99.90;;;;;;5054525;28;20036;-78
2021/01/31 06:02:05;;;;;;;111.63;63.53;;;7.80;99.90;;;;;;5054866;28;20029;-78
2021/01/31 06:04:31;;;;;;;110.43;61.08;;;7.80;99.90;;;;;;5054868;28;20021;-78
2021/01/31 06:07:12;;;;;;;128.60;75.95;;;7.70;99.90;;;;;;5054924;28;20104;-78
2021/01/31 06:09:56;;;;;;;144.27;77.43;;;7.80;99.90;;;;;;5054540;28;20021;-78
2021/01/31 06:12:24;;;;;;;142.27;80.25;;;7.80;99.90;;;;;;5054851;28;20467;-78
2021/01/31 06:15:16;;;;;;;171.48;93.40;;;7.80;99.90;;;;;;5079256;28;20433;-79
2021/01/31 06:17:43;;;;;;;175.98;90.30;;;7.80;99.90;;;;;;5093920;28;20020;-79
2021/01/31 06:20:17;;;;;;;157.43;80.85;;;7.80;99.90;;;;;;5093778;28;20498;-79
2021/01/31 06:22:46;;;;;;;139.93;79.75;;;7.80;99.90;;;;;;5094368;28;20039;-79
2021/01/31 06:25:27;;;;;;;113.00;68.50;;;7.80;99.90;;;;;;5093995;28;20115;-79
2021/01/31 06:28:10;;;;;;;100.82;57.95;;;7.80;99.90;;;;;;5095209;28;20493;-79
2021/01/31 06:30:50;;;;;;;99.50;59.65;;;7.70;99.90;;;;;;5094988;28;20035;-79
2021/01/31 06:33:16;;;;;;;100.70;57.25;;;7.70;99.90;;;;;;5094262;28;20481;-79
2021/01/31 06:35:43;;;;;;;102.07;56.67;;;7.70;99.90;;;;;;5095221;28;20020;-79
2021/01/31 06:38:18;;;;;;;107.00;58.58;;;7.70;99.90;;;;;;5094167;28;20069;-79
2021/01/31 06:40:59;;;;;;;100.43;58.60;;;7.70;99.90;;;;;;5093533;28;20020;-79
2021/01/31 06:43:30;;;;;;;163.50;56.00;;;7.70;99.90;;;;;;5095044;28;20069;-79
2021/01/31 06:46:08;;;;;;;85.45;45.92;;;7.70;99.90;;;;;;5092221;28;20582;-78
2021/01/31 06:48:49;;;;;;;92.75;43.13;;;7.70;99.90;;;;;;5094156;28;20077;-78
2021/01/31 06:51:24;;;;;;;59.88;39.13;;;7.70;99.90;;;;;;5093017;28;20031;-78
2021/01/31 06:54:26;;;;;;;59.03;36.00;;;7.60;99.90;;;;;;5094359;28;20125;-78
2021/01/31 06:57:25;;;;;;;54.75;34.22;;;7.60;99.90;;;;;;5091704;28;20027;-78
2021/01/31 06:59:57;;;;;;;175.70;98.38;;;7.70;99.90;;;;;;5092637;28;20028;-77
2021/01/31 07:02:44;;;;;;;182.57;106.05;;;7.60;99.90;;;;;;5093035;28;20035;-76
2021/01/31 07:05:25;;;;;;;103.53;69.35;;;7.70;99.90;;;;;;5092594;28;20028;-76
2021/01/31 07:08:03;;;;;;;93.13;60.10;;;7.70;99.90;;;;;;5092950;28;20031;-76
2021/01/31 07:10:47;;;;;;;95.30;61.97;;;7.60;99.90;;;;;;5093314;28;20028;-78
2021/01/31 07:13:37;;;;;;;243.85;134.88;;;7.60;99.90;;;;;;5091973;28;20024;-77
2021/01/31 07:16:18;;;;;;;109.82;70.10;;;7.60;99.90;;;;;;5091632;28;20507;-78
2021/01/31 07:18:57;;;;;;;73.32;50.90;;;7.60;99.90;;;;;;5093228;28;20429;-77
2021/01/31 07:21:52;;;;;;;74.20;50.15;;;7.60;99.90;;;;;;5093261;28;20048;-77
2021/01/31 07:24:26;;;;;;;79.88;51.80;;;7.60;99.90;;;;;;5093132;28;20026;-77
2021/01/31 07:27:08;;;;;;;76.68;52.28;;;7.60;99.90;;;;;;5092199;28;20467;-75
2021/01/31 07:29:44;;;;;;;78.00;50.75;;;7.70;99.90;;;;;;5092415;28;20101;-76
2021/01/31 07:32:18;;;;;;;75.40;50.28;;;7.60;99.90;;;;;;5090914;28;20024;-75
2021/01/31 07:35:04;;;;;;;80.78;53.00;;;7.70;99.90;;;;;;5092345;28;20016;-75
2021/01/31 07:37:31;;;;;;;79.82;52.10;;;7.60;99.90;;;;;;5092186;28;20467;-75
2021/01/31 07:40:06;;;;;;;74.68;52.70;;;7.60;99.90;;;;;;5091875;28;20024;-75
2021/01/31 07:42:35;;;;;;;87.43;55.28;;;7.60;99.90;;;;;;5091043;28;20092;-75
2021/01/31 07:45:20;;;;;;;95.50;64.53;;;7.70;99.90;;;;;;5091139;28;20451;-75
2021/01/31 07:47:48;;;;;;;87.07;60.50;;;7.60;99.90;;;;;;5091623;28;20032;-75
2021/01/31 07:50:21;;;;;;;88.25;61.40;;;7.60;99.90;;;;;;5090600;28;20024;-75
2021/01/31 07:52:52;;;;;;;85.18;58.80;;;7.60;99.90;;;;;;5091976;28;20027;-75
2021/01/31 07:55:38;;;;;;;75.90;53.15;;;7.60;99.90;;;;;;5091918;28;20051;-75
2021/01/31 07:58:26;;;;;;;76.57;52.45;;;7.60;99.90;;;;;;5091851;28;20121;-77
2021/01/31 08:00:53;;;;;;;81.97;57.22;;;7.50;99.90;;;;;;5091810;28;20024;-76
2021/01/31 08:03:28;;;;;;;75.65;52.63;;;7.50;99.90;;;;;;5090741;28;20107;-76
2021/01/31 08:06:14;;;;;;;83.03;54.38;;;7.50;99.90;;;;;;5092046;28;20048;-75
2021/01/31 08:08:53;;;;;;;81.43;53.30;;;7.50;99.90;;;;;;5077485;28;20390;-76
2021/01/31 08:11:18;;;;;;;72.28;47.88;;;7.40;99.90;;;;;;5092297;28;20054;-76
2021/01/31 08:13:48;;;;;;;88.35;48.47;;;7.40;99.90;;;;;;5090913;28;20072;-78
2021/01/31 08:16:38;;;;;;;62.75;43.38;;;7.60;99.90;;;;;;5089262;28;20020;-79
2021/01/31 08:19:10;;;;;;;76.43;44.20;;;7.80;99.90;;;;;;5089517;28;20028;-77
2021/01/31 08:21:55;;;;;;;271.88;150.77;;;8.20;99.90;;;;;;5088939;28;20060;-84
2021/01/31 08:24:58;;;;;;;217.10;160.35;;;8.40;99.90;;;;;;5090624;28;20020;-79
2021/01/31 08:27:41;;;;;;;91.88;65.30;;;8.70;99.90;;;;;;5091011;28;20021;-78
2021/01/31 08:30:13;;;;;;;112.88;71.18;;;9.20;99.90;;;;;;5090165;28;20540;-77
2021/01/31 08:33:02;;;;;;;69.55;49.15;;;9.40;99.90;;;;;;5092749;28;20024;-79
2021/01/31 08:35:27;;;;;;;73.55;50.47;;;8.80;99.90;;;;;;5042195;28;20548;-79
2021/01/31 08:38:24;;;;;;;71.72;51.03;;;8.50;99.90;;;;;;5091082;28;20027;-78
2021/01/31 08:41:02;;;;;;;85.35;55.67;;;8.20;99.90;;;;;;5092380;28;20391;-79
2021/01/31 08:43:42;;;;;;;103.97;69.55;;;8.00;99.90;;;;;;5091281;28;20028;-78
2021/01/31 08:46:09;;;;;;;72.63;48.28;;;7.90;99.90;;;;;;5092637;28;20482;-78
2021/01/31 08:48:35;;;;;;;86.00;63.05;;;7.80;99.90;;;;;;5092376;28;20036;-78
2021/01/31 08:51:03;;;;;;;84.88;56.20;;;7.80;99.90;;;;;;5092551;28;20023;-78
2021/01/31 08:53:29;;;;;;;99.13;65.85;;;7.70;99.90;;;;;;5091844;28;20383;-77
2021/01/31 08:56:21;;;;;;;99.65;67.82;;;7.70;99.90;;;;;;5091542;28;20024;-76
2021/01/31 08:58:47;;;;;;;132.13;89.47;;;7.70;99.90;;;;;;5088851;28;20028;-77
2021/01/31 09:01:13;;;;;;;131.02;68.03;;;7.80;99.90;;;;;;5091340;28;20028;-78
2021/01/31 09:03:43;;;;;;;93.80;63.92;;;7.90;99.90;;;;;;5094120;28;20028;-77
2021/01/31 09:06:10;;;;;;;;;;;7.90;99.90;;;;;;5094876;28;20026;-79
2021/01/31 09:08:37;;;;;;;123.65;86.22;;;7.80;99.90;;;;;;5096031;28;20695;-78
2021/01/31 09:11:05;;;;;;;122.95;80.28;;;7.80;99.90;;;;;;5096737;28;20493;-80
2021/01/31 09:13:33;;;;;;;123.38;83.93;;;7.80;99.90;;;;;;5096573;28;20028;-79
2021/01/31 09:16:11;;;;;;;92.40;63.15;;;7.80;99.90;;;;;;5079246;28;20121;-78
2021/01/31 09:18:37;;;;;;;92.22;60.13;;;7.80;99.90;;;;;;5075997;28;20398;-79
2021/01/31 09:21:39;;;;;;;81.72;51.53;;;7.80;99.90;;;;;;5074804;28;20055;-79
2021/01/31 09:24:10;;;;;;;102.45;62.65;;;7.70;99.90;;;;;;5073689;28;20561;-80
2021/01/31 09:26:37;;;;;;;107.15;65.10;;;7.70;99.90;;;;;;5075823;28;20048;-80
2021/01/31 09:29:10;;;;;;;114.70;67.28;;;7.70;99.90;;;;;;5074677;28;20126;-80
2021/01/31 09:31:41;;;;;;;82.30;52.25;;;7.70;99.90;;;;;;5076232;28;20085;-80
2021/01/31 09:34:07;;;;;;;108.20;66.97;;;7.80;99.90;;;;;;5091685;28;20046;-80
2021/01/31 09:36:36;;;;;;;70.78;47.00;;;7.80;99.90;;;;;;5074688;28;20124;-80
2021/01/31 09:39:06;;;;;;;83.07;51.90;;;7.80;99.90;;;;;;5091431;28;20024;-80
2021/01/31 09:41:33;;;;;;;92.93;59.65;;;7.80;99.90;;;;;;5075892;28;20525;-79
2021/01/31 09:44:06;;;;;;;106.80;69.18;;;7.70;99.90;;;;;;5074683;28;20128;-80
2021/01/31 09:46:34;;;;;;;83.28;54.60;;;7.70;99.90;;;;;;5075863;28;20031;-79
2021/01/31 09:49:10;;;;;;;71.70;48.35;;;7.80;99.90;;;;;;5075360;28;20032;-82
2021/01/31 09:51:37;;;;;;;78.65;52.63;;;7.70;99.90;;;;;;5075460;28;20036;-79
2021/01/31 09:54:20;;;;;;;104.03;68.18;;;7.80;99.90;;;;;;5075640;28;20017;-79
2021/01/31 09:56:52;;;;;;;115.18;72.47;;;7.80;99.90;;;;;;5074148;28;20025;-80
2021/01/31 09:59:28;;;;;;;114.28;72.10;;;7.80;99.90;;;;;;5075364;28;20073;-79
2021/01/31 10:02:09;;;;;;;80.57;52.55;;;7.80;99.90;;;;;;5074452;28;20024;-81
2021/01/31 10:04:38;;;;;;;112.10;68.22;;;7.80;99.90;;;;;;5073677;28;20730;-78
2021/01/31 10:07:10;;;;;;;167.75;95.30;;;7.80;99.90;;;;;;5074992;28;20028;-80
2021/01/31 10:09:42;;;;;;;156.52;89.10;;;7.80;99.90;;;;;;5074258;28;20028;-87
2021/01/31 10:12:33;;;;;;;132.68;76.47;;;7.80;99.90;;;;;;5074771;28;20021;-82
2021/01/31 10:15:05;;;;;;;84.35;55.88;;;7.80;99.90;;;;;;5072613;28;20123;-82
2021/01/31 10:17:34;;;;;;;86.72;55.58;;;7.80;99.90;;;;;;5073414;28;20074;-82
2021/01/31 10:20:25;;;;;;;116.60;73.45;;;7.80;99.90;;;;;;5072632;28;20021;-81
2021/01/31 10:22:53;;;;;;;79.97;49.33;;;7.80;99.90;;;;;;5075247;28;20056;-82
2021/01/31 10:25:19;;;;;;;83.82;51.88;;;7.80;99.90;;;;;;5090479;28;20139;-82
2021/01/31 10:27:48;;;;;;;78.25;49.30;;;7.80;99.90;;;;;;5073598;28;20025;-81
2021/01/31 10:30:50;;;;;;;73.75;48.38;;;7.80;99.90;;;;;;5073674;28;20036;-81
2021/01/31 10:33:41;;;;;;;108.97;66.47;;;7.90;99.90;;;;;;5074709;28;20032;-80
2021/01/31 10:36:23;;;;;;;79.53;51.33;;;7.80;99.90;;;;;;5074946;28;20028;-81
2021/01/31 10:38:50;;;;;;;82.63;51.83;;;7.70;99.90;;;;;;5073465;28;20119;-81
2021/01/31 10:41:16;;;;;;;79.80;51.08;;;7.80;99.90;;;;;;5073608;28;20103;-80
2021/01/31 10:43:42;;;;;;;77.32;47.08;;;7.80;99.90;;;;;;5073460;28;20062;-80
2021/01/31 10:46:08;;;;;;;65.82;43.45;;;7.80;99.90;;;;;;5073651;28;20028;-80
2021/01/31 10:48:34;;;;;;;92.95;55.67;;;7.70;99.90;;;;;;5074487;28;20463;-81
2021/01/31 10:51:01;;;;;;;72.28;46.97;;;7.70;99.90;;;;;;5090248;28;20043;-81
2021/01/31 10:53:27;;;;;;;64.85;29.92;;;7.80;99.90;;;;;;5072985;28;20051;-81
2021/01/31 10:55:52;;;;;;;69.57;28.88;;;10.60;99.90;;;;;;5074836;28;20074;-80
2021/01/31 10:58:18;;;;;;;60.83;31.63;;;11.90;99.90;;;;;;5072597;28;20024;-80
2021/01/31 11:00:44;;;;;;;47.67;35.13;;;12.40;99.90;;;;;;5073128;28;20494;-81
2021/01/31 11:03:10;;;;;;;47.83;32.55;;;10.80;99.90;;;;;;5073646;28;20059;-80
2021/01/31 11:05:36;;;;;;;81.55;52.83;;;9.90;99.90;;;;;;5074075;28;20031;-80
2021/01/31 11:08:02;;;;;;;160.52;111.25;;;9.30;99.90;;;;;;5072926;28;20074;-81
2021/01/31 11:10:28;;;;;;;118.00;76.43;;;8.90;99.90;;;;;;5072921;28;20028;-79
2021/01/31 11:12:54;;;;;;;80.22;53.63;;;8.40;99.90;;;;;;5074258;28;20017;-80
2021/01/31 11:15:19;;;;;;;62.45;39.47;;;8.30;99.90;;;;;;5073973;28;20123;-81
2021/01/31 11:17:45;;;;;;;64.53;41.65;;;8.00;99.90;;;;;;5073398;28;20021;-80
2021/01/31 11:20:11;;;;;;;71.78;43.85;;;7.90;99.90;;;;;;5089248;28;20165;-80
2021/01/31 11:22:37;;;;;;;76.00;50.88;;;7.70;99.90;;;;;;5071810;28;20475;-81
2021/01/31 11:25:05;;;;;;;60.40;44.67;;;7.60;99.90;;;;;;5072419;28;20487;-80
2021/01/31 11:27:31;;;;;;;152.18;72.30;;;7.60;99.90;;;;;;5089089;28;20085;-80
2021/01/31 11:29:57;;;;;;;88.85;54.65;;;7.60;99.90;;;;;;5093930;28;20050;-80
2021/01/31 11:32:23;;;;;;;76.70;44.03;;;7.50;99.90;;;;;;5092393;28;20498;-79
2021/01/31 11:34:49;;;;;;;57.38;40.83;;;7.50;99.90;;;;;;5094006;28;20020;-80
2021/01/31 11:37:15;;;;;;;43.42;30.52;;;7.60;99.90;;;;;;5092699;28;20020;-79
2021/01/31 11:39:41;;;;;;;43.25;30.05;;;7.40;99.90;;;;;;5089981;28;20165;-88
2021/01/31 11:42:07;;;;;;;38.70;28.60;;;7.60;99.90;;;;;;5092404;28;20522;-88
2021/01/31 11:44:33;;;;;;;43.78;31.63;;;7.40;99.90;;;;;;5092610;28;20535;-88
2021/01/31 11:46:59;;;;;;;48.67;34.55;;;7.30;99.90;;;;;;5091290;28;20107;-88
2021/01/31 11:49:25;;;;;;;48.53;34.47;;;7.30;99.90;;;;;;5091694;28;20032;-87
2021/01/31 11:51:51;;;;;;;72.18;44.05;;;7.30;99.90;;;;;;5093548;28;20022;-88
2021/01/31 11:54:17;;;;;;;51.88;35.63;;;7.20;99.90;;;;;;5092290;28;20469;-86
2021/01/31 11:56:43;;;;;;;45.00;30.45;;;7.30;99.90;;;;;;5092374;28;20043;-85
2021/01/31 11:59:09;;;;;;;51.75;33.97;;;7.20;99.90;;;;;;5092157;28;20028;-82
2021/01/31 12:01:40;;;;;;;54.88;37.53;;;7.50;99.90;;;;;;5092128;28;20111;-83
2021/01/31 12:04:09;;;;;;;52.78;35.35;;;7.30;99.90;;;;;;5093537;28;20250;-82
2021/01/31 12:06:34;;;;;;;44.90;31.60;;;7.30;99.90;;;;;;5093343;28;20035;-82
2021/01/31 12:09:01;;;;;;;77.72;47.88;;;7.20;99.90;;;;;;5092613;28;20025;-83
2021/01/31 12:11:28;;;;;;;50.38;36.10;;;7.10;99.90;;;;;;5093439;28;20103;-82
2021/01/31 12:13:57;;;;;;;38.92;27.48;;;7.10;99.90;;;;;;5093132;28;20040;-82
2021/01/31 12:16:23;;;;;;;35.38;24.98;;;7.10;99.90;;;;;;5093166;28;20028;-83
2021/01/31 12:18:49;;;;;;;32.50;24.13;;;7.30;99.90;;;;;;5092223;28;20064;-80
2021/01/31 12:21:15;;;;;;;42.10;29.85;;;7.10;99.90;;;;;;5092187;28;20054;-81
2021/01/31 12:23:41;;;;;;;86.50;54.08;;;7.00;99.90;;;;;;5093347;28;20077;-83
2021/01/31 12:26:07;;;;;;;56.35;37.67;;;7.00;99.90;;;;;;5091888;28;20020;-82
2021/01/31 12:28:33;;;;;;;120.60;74.82;;;6.90;99.90;;;;;;5091943;28;20070;-82
2021/01/31 12:30:58;;;;;;;45.00;33.53;;;6.90;99.90;;;;;;5091426;28;20020;-78
2021/01/31 12:33:24;;;;;;;50.35;35.88;;;6.90;99.90;;;;;;5092234;28;20373;-78
2021/01/31 12:35:50;;;;;;;49.80;35.53;;;6.90;99.90;;;;;;5092066;28;20049;-78
2021/01/31 12:38:16;;;;;;;178.68;114.25;;;6.90;99.90;;;;;;5094295;28;20405;-79
2021/01/31 12:40:42;;;;;;;60.42;43.92;;;6.90;99.90;;;;;;5097227;28;20095;-86
2021/01/31 12:43:07;;;;;;;38.00;28.40;;;6.90;99.90;;;;;;5097113;28;20078;-86
2021/01/31 12:45:33;;;;;;;55.20;39.15;;;6.80;99.90;;;;;;5097047;28;20016;-83
2021/01/31 12:47:59;;;;;;;60.67;42.58;;;6.80;99.90;;;;;;5095967;28;20481;-84
2021/01/31 12:50:28;;;;;;;44.92;30.05;;;6.80;99.90;;;;;;5095720;28;20074;-84
2021/01/31 12:52:53;;;;;;;43.40;29.23;;;6.80;99.90;;;;;;5095325;28;20017;-81
2021/01/31 12:55:19;;;;;;;62.70;41.63;;;7.10;99.90;;;;;;5096917;28;20023;-80
2021/01/31 12:57:45;;;;;;;169.35;96.90;;;7.00;99.90;;;;;;5096900;28;20032;-83
2021/01/31 13:00:16;;;;;;;73.72;45.25;;;7.00;99.90;;;;;;5095628;28;20028;-78
2021/01/31 13:02:41;;;;;;;65.75;41.33;;;7.00;99.90;;;;;;5096999;28;20439;-81